sensor_id;sensor_type;location;lat;lon;timestamp;P1;durP1;ratioP1;P2;durP2;ratioP2
50092;SDS011;35974;47.752;10.290;2024-01-27T00:00:15;2.65;;;1.40;;
50092;SDS011;35974;47.752;10.290;2024-01-27T00:02:43;2.45;;;1.40;;
50092;SDS011;35974;47.752;10.290;2024-01-27T00:05:10;2.55;;;1.70;;
50092;SDS011;35974;47.752;10.290;2024-01-27T00:07:43;3.08;;;1.52;;
50092;SDS011;35974;47.752;10.290;2024-01-27T00:10:09;1.98;;;1.40;;
50092;SDS011;35974;47.752;10.290;2024-01-27T00:12:36;2.95;;;1.40;;
50092;SDS011;35974;47.752;10.290;2024-01-27T00:15:03;2.17;;;1.45;;
50092;SDS011;35974;47.752;10.290;2024-01-27T00:17:29;2.60;;;1.52;;
50092;SDS011;35974;47.752;10.290;2024-01-27T00:19:56;4.00;;;1.50;;
50092;SDS011;35974;47.752;10.290;2024-01-27T00:22:23;2.85;;;1.70;;
50092;SDS011;35974;47.752;10.290;2024-01-27T00:24:49;4.50;;;1.70;;
50092;SDS011;35974;47.752;10.290;2024-01-27T00:27:15;3.28;;;1.60;;
50092;SDS011;35974;47.752;10.290;2024-01-27T00:29:42;3.97;;;1.55;;
50092;SDS011;35974;47.752;10.290;2024-01-27T00:32:09;3.85;;;1.50;;
50092;SDS011;35974;47.752;10.290;2024-01-27T00:34:35;2.75;;;1.58;;
50092;SDS011;35974;47.752;10.290;2024-01-27T00:37:02;2.38;;;1.33;;
50092;SDS011;35974;47.752;10.290;2024-01-27T00:39:28;4.57;;;1.60;;
50092;SDS011;35974;47.752;10.290;2024-01-27T00:41:55;3.33;;;1.60;;
50092;SDS011;35974;47.752;10.290;2024-01-27T00:44:24;3.58;;;1.70;;
50092;SDS011;35974;47.752;10.290;2024-01-27T00:46:51;3.50;;;2.00;;
50092;SDS011;35974;47.752;10.290;2024-01-27T00:49:17;6.15;;;1.90;;
50092;SDS011;35974;47.752;10.290;2024-01-27T00:51:44;3.45;;;1.67;;
50092;SDS011;35974;47.752;10.290;2024-01-27T00:54:11;5.28;;;1.63;;
50092;SDS011;35974;47.752;10.290;2024-01-27T00:56:37;2.85;;;1.80;;
50092;SDS011;35974;47.752;10.290;2024-01-27T00:59:04;4.47;;;1.65;;
50092;SDS011;35974;47.752;10.290;2024-01-27T01:01:30;4.43;;;2.03;;
50092;SDS011;35974;47.752;10.290;2024-01-27T01:03:57;2.55;;;1.58;;
50092;SDS011;35974;47.752;10.290;2024-01-27T01:06:24;4.55;;;2.03;;
50092;SDS011;35974;47.752;10.290;2024-01-27T01:08:50;4.00;;;2.15;;
50092;SDS011;35974;47.752;10.290;2024-01-27T01:11:17;4.60;;;2.17;;
50092;SDS011;35974;47.752;10.290;2024-01-27T01:13:43;4.78;;;2.17;;
50092;SDS011;35974;47.752;10.290;2024-01-27T01:16:10;5.00;;;2.17;;
50092;SDS011;35974;47.752;10.290;2024-01-27T01:18:36;3.72;;;2.20;;
50092;SDS011;35974;47.752;10.290;2024-01-27T01:21:03;3.67;;;2.10;;
50092;SDS011;35974;47.752;10.290;2024-01-27T01:23:30;4.40;;;2.22;;
50092;SDS011;35974;47.752;10.290;2024-01-27T01:25:56;6.10;;;2.35;;
50092;SDS011;35974;47.752;10.290;2024-01-27T01:28:23;6.32;;;2.13;;
50092;SDS011;35974;47.752;10.290;2024-01-27T01:30:49;5.82;;;2.10;;
50092;SDS011;35974;47.752;10.290;2024-01-27T01:33:16;4.93;;;2.58;;
50092;SDS011;35974;47.752;10.290;2024-01-27T01:35:43;3.75;;;2.25;;
50092;SDS011;35974;47.752;10.290;2024-01-27T01:38:10;3.95;;;1.80;;
50092;SDS011;35974;47.752;10.290;2024-01-27T01:40:37;5.80;;;2.50;;
50092;SDS011;35974;47.752;10.290;2024-01-27T01:43:06;5.82;;;2.67;;
50092;SDS011;35974;47.752;10.290;2024-01-27T01:45:35;4.85;;;2.50;;
50092;SDS011;35974;47.752;10.290;2024-01-27T01:48:02;3.63;;;2.15;;
50092;SDS011;35974;47.752;10.290;2024-01-27T01:50:29;4.60;;;2.30;;
50092;SDS011;35974;47.752;10.290;2024-01-27T01:52:56;5.63;;;2.55;;
50092;SDS011;35974;47.752;10.290;2024-01-27T01:55:23;6.38;;;2.40;;
50092;SDS011;35974;47.752;10.290;2024-01-27T01:57:50;4.20;;;2.33;;
50092;SDS011;35974;47.752;10.290;2024-01-27T02:00:17;7.28;;;2.60;;
50092;SDS011;35974;47.752;10.290;2024-01-27T02:02:44;4.97;;;2.63;;
50092;SDS011;35974;47.752;10.290;2024-01-27T02:05:12;5.90;;;2.70;;
50092;SDS011;35974;47.752;10.290;2024-01-27T02:07:39;5.90;;;2.90;;
50092;SDS011;35974;47.752;10.290;2024-01-27T02:10:06;5.32;;;2.65;;
50092;SDS011;35974;47.752;10.290;2024-01-27T02:12:38;8.35;;;3.10;;
50092;SDS011;35974;47.752;10.290;2024-01-27T02:15:04;6.03;;;2.67;;
50092;SDS011;35974;47.752;10.290;2024-01-27T02:17:35;6.82;;;2.75;;
50092;SDS011;35974;47.752;10.290;2024-01-27T02:20:02;4.80;;;2.63;;
50092;SDS011;35974;47.752;10.290;2024-01-27T02:22:29;6.47;;;2.67;;
50092;SDS011;35974;47.752;10.290;2024-01-27T02:24:55;8.07;;;3.03;;
50092;SDS011;35974;47.752;10.290;2024-01-27T02:27:21;8.60;;;3.08;;
50092;SDS011;35974;47.752;10.290;2024-01-27T02:29:48;6.28;;;3.10;;
50092;SDS011;35974;47.752;10.290;2024-01-27T02:32:15;6.05;;;3.00;;
50092;SDS011;35974;47.752;10.290;2024-01-27T02:34:41;7.45;;;2.90;;
50092;SDS011;35974;47.752;10.290;2024-01-27T02:37:08;4.80;;;2.30;;
50092;SDS011;35974;47.752;10.290;2024-01-27T02:39:35;5.50;;;2.78;;
50092;SDS011;35974;47.752;10.290;2024-01-27T02:42:02;6.72;;;2.60;;
50092;SDS011;35974;47.752;10.290;2024-01-27T02:44:29;5.72;;;2.80;;
50092;SDS011;35974;47.752;10.290;2024-01-27T02:46:55;4.85;;;2.65;;
50092;SDS011;35974;47.752;10.290;2024-01-27T02:49:22;6.53;;;3.05;;
50092;SDS011;35974;47.752;10.290;2024-01-27T02:51:48;4.97;;;2.88;;
50092;SDS011;35974;47.752;10.290;2024-01-27T02:54:15;5.25;;;2.83;;
50092;SDS011;35974;47.752;10.290;2024-01-27T02:56:42;6.53;;;3.17;;
50092;SDS011;35974;47.752;10.290;2024-01-27T02:59:08;8.25;;;2.90;;
50092;SDS011;35974;47.752;10.290;2024-01-27T03:01:35;6.75;;;2.58;;
50092;SDS011;35974;47.752;10.290;2024-01-27T03:04:01;5.75;;;3.35;;
50092;SDS011;35974;47.752;10.290;2024-01-27T03:06:28;7.53;;;2.90;;
50092;SDS011;35974;47.752;10.290;2024-01-27T03:08:55;6.30;;;3.10;;
50092;SDS011;35974;47.752;10.290;2024-01-27T03:11:22;5.05;;;2.63;;
50092;SDS011;35974;47.752;10.290;2024-01-27T03:13:48;4.25;;;2.75;;
50092;SDS011;35974;47.752;10.290;2024-01-27T03:16:15;5.07;;;2.30;;
50092;SDS011;35974;47.752;10.290;2024-01-27T03:18:43;4.07;;;2.28;;
50092;SDS011;35974;47.752;10.290;2024-01-27T03:21:10;3.92;;;2.60;;
50092;SDS011;35974;47.752;10.290;2024-01-27T03:23:36;4.50;;;2.80;;
50092;SDS011;35974;47.752;10.290;2024-01-27T03:26:03;7.75;;;3.22;;
50092;SDS011;35974;47.752;10.290;2024-01-27T03:28:30;8.43;;;3.15;;
50092;SDS011;35974;47.752;10.290;2024-01-27T03:30:56;4.60;;;2.60;;
50092;SDS011;35974;47.752;10.290;2024-01-27T03:33:23;6.00;;;2.88;;
50092;SDS011;35974;47.752;10.290;2024-01-27T03:35:50;7.00;;;2.40;;
50092;SDS011;35974;47.752;10.290;2024-01-27T03:38:16;7.45;;;3.25;;
50092;SDS011;35974;47.752;10.290;2024-01-27T03:40:43;5.72;;;2.50;;
50092;SDS011;35974;47.752;10.290;2024-01-27T03:43:09;6.55;;;2.70;;
50092;SDS011;35974;47.752;10.290;2024-01-27T03:45:35;5.60;;;2.78;;
50092;SDS011;35974;47.752;10.290;2024-01-27T03:48:18;4.40;;;2.67;;
50092;SDS011;35974;47.752;10.290;2024-01-27T03:50:44;6.18;;;2.72;;
50092;SDS011;35974;47.752;10.290;2024-01-27T03:53:11;8.77;;;3.10;;
50092;SDS011;35974;47.752;10.290;2024-01-27T03:55:37;5.43;;;2.70;;
50092;SDS011;35974;47.752;10.290;2024-01-27T03:58:04;4.50;;;2.80;;
50092;SDS011;35974;47.752;10.290;2024-01-27T04:00:31;5.45;;;2.65;;
50092;SDS011;35974;47.752;10.290;2024-01-27T04:02:59;4.55;;;3.13;;
50092;SDS011;35974;47.752;10.290;2024-01-27T04:05:27;4.45;;;2.88;;
50092;SDS011;35974;47.752;10.290;2024-01-27T04:07:54;3.95;;;2.65;;
50092;SDS011;35974;47.752;10.290;2024-01-27T04:10:21;4.88;;;2.90;;
50092;SDS011;35974;47.752;10.290;2024-01-27T04:12:49;4.45;;;2.67;;
50092;SDS011;35974;47.752;10.290;2024-01-27T04:15:15;7.03;;;2.88;;
50092;SDS011;35974;47.752;10.290;2024-01-27T04:17:42;7.32;;;3.38;;
50092;SDS011;35974;47.752;10.290;2024-01-27T04:20:10;3.88;;;2.75;;
50092;SDS011;35974;47.752;10.290;2024-01-27T04:22:37;5.93;;;2.80;;
50092;SDS011;35974;47.752;10.290;2024-01-27T04:25:04;5.18;;;3.28;;
50092;SDS011;35974;47.752;10.290;2024-01-27T04:27:31;5.70;;;3.00;;
50092;SDS011;35974;47.752;10.290;2024-01-27T04:30:02;6.57;;;3.33;;
50092;SDS011;35974;47.752;10.290;2024-01-27T04:32:29;5.03;;;3.20;;
50092;SDS011;35974;47.752;10.290;2024-01-27T04:34:55;5.00;;;3.03;;
50092;SDS011;35974;47.752;10.290;2024-01-27T04:37:22;4.32;;;2.97;;
50092;SDS011;35974;47.752;10.290;2024-01-27T04:39:48;5.05;;;3.03;;
50092;SDS011;35974;47.752;10.290;2024-01-27T04:42:15;6.45;;;3.20;;
50092;SDS011;35974;47.752;10.290;2024-01-27T04:44:59;5.43;;;2.90;;
50092;SDS011;35974;47.752;10.290;2024-01-27T04:47:25;4.50;;;3.20;;
50092;SDS011;35974;47.752;10.290;2024-01-27T04:49:52;7.63;;;3.20;;
50092;SDS011;35974;47.752;10.290;2024-01-27T04:52:18;5.72;;;3.65;;
50092;SDS011;35974;47.752;10.290;2024-01-27T04:54:45;5.60;;;3.00;;
50092;SDS011;35974;47.752;10.290;2024-01-27T04:57:11;6.30;;;3.50;;
50092;SDS011;35974;47.752;10.290;2024-01-27T04:59:38;5.88;;;3.42;;
50092;SDS011;35974;47.752;10.290;2024-01-27T05:02:04;5.18;;;3.45;;
50092;SDS011;35974;47.752;10.290;2024-01-27T05:04:31;6.38;;;3.55;;
50092;SDS011;35974;47.752;10.290;2024-01-27T05:06:57;6.78;;;3.90;;
50092;SDS011;35974;47.752;10.290;2024-01-27T05:09:24;5.68;;;3.72;;
50092;SDS011;35974;47.752;10.290;2024-01-27T05:11:51;6.10;;;3.30;;
50092;SDS011;35974;47.752;10.290;2024-01-27T05:14:19;6.63;;;3.67;;
50092;SDS011;35974;47.752;10.290;2024-01-27T05:16:45;8.05;;;3.53;;
50092;SDS011;35974;47.752;10.290;2024-01-27T05:19:12;6.65;;;4.28;;
50092;SDS011;35974;47.752;10.290;2024-01-27T05:21:38;8.32;;;3.88;;
50092;SDS011;35974;47.752;10.290;2024-01-27T05:24:05;7.18;;;4.00;;
50092;SDS011;35974;47.752;10.290;2024-01-27T05:26:32;6.78;;;4.18;;
50092;SDS011;35974;47.752;10.290;2024-01-27T05:28:58;7.95;;;4.47;;
50092;SDS011;35974;47.752;10.290;2024-01-27T05:31:25;9.25;;;4.25;;
50092;SDS011;35974;47.752;10.290;2024-01-27T05:33:52;10.07;;;4.70;;
50092;SDS011;35974;47.752;10.290;2024-01-27T05:36:19;7.88;;;4.30;;
50092;SDS011;35974;47.752;10.290;2024-01-27T05:38:45;10.65;;;4.22;;
50092;SDS011;35974;47.752;10.290;2024-01-27T05:41:12;9.00;;;4.45;;
50092;SDS011;35974;47.752;10.290;2024-01-27T05:43:38;9.20;;;4.60;;
50092;SDS011;35974;47.752;10.290;2024-01-27T05:46:05;9.52;;;4.57;;
50092;SDS011;35974;47.752;10.290;2024-01-27T05:48:31;8.48;;;4.00;;
50092;SDS011;35974;47.752;10.290;2024-01-27T05:51:00;5.88;;;4.28;;
50092;SDS011;35974;47.752;10.290;2024-01-27T05:53:27;9.18;;;4.68;;
50092;SDS011;35974;47.752;10.290;2024-01-27T05:55:54;10.75;;;4.88;;
50092;SDS011;35974;47.752;10.290;2024-01-27T05:58:22;8.40;;;4.43;;
50092;SDS011;35974;47.752;10.290;2024-01-27T06:00:48;9.50;;;5.18;;
50092;SDS011;35974;47.752;10.290;2024-01-27T06:03:15;10.13;;;5.13;;
50092;SDS011;35974;47.752;10.290;2024-01-27T06:05:43;11.30;;;4.70;;
50092;SDS011;35974;47.752;10.290;2024-01-27T06:08:10;10.60;;;5.35;;
50092;SDS011;35974;47.752;10.290;2024-01-27T06:10:36;11.25;;;5.22;;
50092;SDS011;35974;47.752;10.290;2024-01-27T06:13:03;13.85;;;6.45;;
50092;SDS011;35974;47.752;10.290;2024-01-27T06:15:30;12.68;;;6.20;;
50092;SDS011;35974;47.752;10.290;2024-01-27T06:17:57;8.63;;;5.25;;
50092;SDS011;35974;47.752;10.290;2024-01-27T06:20:24;11.15;;;6.10;;
50092;SDS011;35974;47.752;10.290;2024-01-27T06:22:51;10.40;;;5.20;;
50092;SDS011;35974;47.752;10.290;2024-01-27T06:25:19;7.80;;;5.30;;
50092;SDS011;35974;47.752;10.290;2024-01-27T06:27:47;11.02;;;6.15;;
50092;SDS011;35974;47.752;10.290;2024-01-27T06:30:15;9.88;;;5.43;;
50092;SDS011;35974;47.752;10.290;2024-01-27T06:32:42;12.02;;;5.63;;
50092;SDS011;35974;47.752;10.290;2024-01-27T06:35:09;10.68;;;5.65;;
50092;SDS011;35974;47.752;10.290;2024-01-27T06:37:38;9.80;;;5.68;;
50092;SDS011;35974;47.752;10.290;2024-01-27T06:40:05;12.70;;;6.68;;
50092;SDS011;35974;47.752;10.290;2024-01-27T06:42:33;13.82;;;7.28;;
50092;SDS011;35974;47.752;10.290;2024-01-27T06:45:00;14.25;;;6.80;;
50092;SDS011;35974;47.752;10.290;2024-01-27T06:47:27;9.30;;;5.70;;
50092;SDS011;35974;47.752;10.290;2024-01-27T06:49:53;10.02;;;5.43;;
50092;SDS011;35974;47.752;10.290;2024-01-27T06:52:20;21.17;;;9.48;;
50092;SDS011;35974;47.752;10.290;2024-01-27T06:54:46;19.27;;;11.48;;
50092;SDS011;35974;47.752;10.290;2024-01-27T06:57:19;7.07;;;5.07;;
50092;SDS011;35974;47.752;10.290;2024-01-27T06:59:50;6.15;;;5.07;;
50092;SDS011;35974;47.752;10.290;2024-01-27T07:02:25;18.10;;;11.13;;
50092;SDS011;35974;47.752;10.290;2024-01-27T07:04:57;12.38;;;6.70;;
50092;SDS011;35974;47.752;10.290;2024-01-27T07:07:25;13.07;;;7.75;;
50092;SDS011;35974;47.752;10.290;2024-01-27T07:09:57;14.18;;;8.63;;
50092;SDS011;35974;47.752;10.290;2024-01-27T07:12:24;10.95;;;6.80;;
50092;SDS011;35974;47.752;10.290;2024-01-27T07:14:51;11.05;;;7.10;;
50092;SDS011;35974;47.752;10.290;2024-01-27T07:17:22;12.38;;;7.22;;
50092;SDS011;35974;47.752;10.290;2024-01-27T07:19:49;10.25;;;6.50;;
50092;SDS011;35974;47.752;10.290;2024-01-27T07:22:15;10.73;;;6.45;;
50092;SDS011;35974;47.752;10.290;2024-01-27T07:24:42;11.27;;;7.07;;
50092;SDS011;35974;47.752;10.290;2024-01-27T07:27:11;15.93;;;9.75;;
50092;SDS011;35974;47.752;10.290;2024-01-27T07:29:39;17.95;;;10.60;;
50092;SDS011;35974;47.752;10.290;2024-01-27T07:32:06;19.10;;;9.85;;
50092;SDS011;35974;47.752;10.290;2024-01-27T07:34:34;20.00;;;10.18;;
50092;SDS011;35974;47.752;10.290;2024-01-27T07:37:01;25.10;;;10.70;;
50092;SDS011;35974;47.752;10.290;2024-01-27T07:39:27;12.38;;;8.50;;
50092;SDS011;35974;47.752;10.290;2024-01-27T07:41:56;11.45;;;7.75;;
50092;SDS011;35974;47.752;10.290;2024-01-27T07:44:22;9.07;;;6.80;;
50092;SDS011;35974;47.752;10.290;2024-01-27T07:46:49;8.18;;;5.60;;
50092;SDS011;35974;47.752;10.290;2024-01-27T07:49:15;7.68;;;6.00;;
50092;SDS011;35974;47.752;10.290;2024-01-27T07:51:46;8.65;;;6.55;;
50092;SDS011;35974;47.752;10.290;2024-01-27T07:54:14;7.78;;;5.95;;
50092;SDS011;35974;47.752;10.290;2024-01-27T07:56:41;9.48;;;6.45;;
50092;SDS011;35974;47.752;10.290;2024-01-27T07:59:10;10.10;;;6.78;;
50092;SDS011;35974;47.752;10.290;2024-01-27T08:01:40;9.98;;;6.25;;
50092;SDS011;35974;47.752;10.290;2024-01-27T08:04:07;10.75;;;6.18;;
50092;SDS011;35974;47.752;10.290;2024-01-27T08:06:45;9.13;;;6.05;;
50092;SDS011;35974;47.752;10.290;2024-01-27T08:09:29;10.52;;;6.50;;
50092;SDS011;35974;47.752;10.290;2024-01-27T08:11:55;16.63;;;9.80;;
50092;SDS011;35974;47.752;10.290;2024-01-27T08:14:22;13.93;;;8.30;;
50092;SDS011;35974;47.752;10.290;2024-01-27T08:16:48;11.90;;;6.82;;
50092;SDS011;35974;47.752;10.290;2024-01-27T08:19:16;20.83;;;11.27;;
50092;SDS011;35974;47.752;10.290;2024-01-27T08:22:01;18.23;;;10.80;;
50092;SDS011;35974;47.752;10.290;2024-01-27T08:24:28;12.88;;;8.43;;
50092;SDS011;35974;47.752;10.290;2024-01-27T08:26:54;15.23;;;9.32;;
50092;SDS011;35974;47.752;10.290;2024-01-27T08:29:21;15.95;;;10.30;;
50092;SDS011;35974;47.752;10.290;2024-01-27T08:31:47;13.77;;;8.25;;
50092;SDS011;35974;47.752;10.290;2024-01-27T08:34:15;16.70;;;10.32;;
50092;SDS011;35974;47.752;10.290;2024-01-27T08:36:42;14.45;;;9.15;;
50092;SDS011;35974;47.752;10.290;2024-01-27T08:39:08;17.55;;;10.23;;
50092;SDS011;35974;47.752;10.290;2024-01-27T08:41:48;18.98;;;10.65;;
50092;SDS011;35974;47.752;10.290;2024-01-27T08:44:15;17.10;;;10.05;;
50092;SDS011;35974;47.752;10.290;2024-01-27T08:46:52;18.95;;;9.85;;
50092;SDS011;35974;47.752;10.290;2024-01-27T08:49:21;18.38;;;9.77;;
50092;SDS011;35974;47.752;10.290;2024-01-27T08:51:49;16.17;;;9.32;;
50092;SDS011;35974;47.752;10.290;2024-01-27T08:56:53;20.15;;;10.23;;
50092;SDS011;35974;47.752;10.290;2024-01-27T08:59:20;16.35;;;9.48;;
50092;SDS011;35974;47.752;10.290;2024-01-27T09:01:52;14.45;;;8.52;;
50092;SDS011;35974;47.752;10.290;2024-01-27T09:04:18;16.60;;;9.95;;
50092;SDS011;35974;47.752;10.290;2024-01-27T09:06:46;35.05;;;20.80;;
50092;SDS011;35974;47.752;10.290;2024-01-27T09:09:13;21.10;;;12.65;;
50092;SDS011;35974;47.752;10.290;2024-01-27T09:11:46;19.35;;;11.70;;
50092;SDS011;35974;47.752;10.290;2024-01-27T09:14:20;18.30;;;11.27;;
50092;SDS011;35974;47.752;10.290;2024-01-27T09:16:48;43.88;;;11.95;;
50092;SDS011;35974;47.752;10.290;2024-01-27T09:19:14;17.08;;;10.57;;
50092;SDS011;35974;47.752;10.290;2024-01-27T09:21:45;17.42;;;10.98;;
50092;SDS011;35974;47.752;10.290;2024-01-27T09:24:12;19.20;;;11.15;;
50092;SDS011;35974;47.752;10.290;2024-01-27T09:26:41;42.17;;;12.63;;
50092;SDS011;35974;47.752;10.290;2024-01-27T09:29:18;19.23;;;11.23;;
50092;SDS011;35974;47.752;10.290;2024-01-27T09:31:47;17.85;;;10.73;;
50092;SDS011;35974;47.752;10.290;2024-01-27T09:34:15;18.95;;;11.70;;
50092;SDS011;35974;47.752;10.290;2024-01-27T09:36:43;17.98;;;11.05;;
50092;SDS011;35974;47.752;10.290;2024-01-27T09:39:10;17.92;;;12.07;;
50092;SDS011;35974;47.752;10.290;2024-01-27T09:41:43;20.92;;;12.65;;
50092;SDS011;35974;47.752;10.290;2024-01-27T09:44:14;18.08;;;11.32;;
50092;SDS011;35974;47.752;10.290;2024-01-27T09:46:45;19.98;;;12.90;;
50092;SDS011;35974;47.752;10.290;2024-01-27T09:49:13;25.52;;;14.43;;
50092;SDS011;35974;47.752;10.290;2024-01-27T09:51:44;28.25;;;15.65;;
50092;SDS011;35974;47.752;10.290;2024-01-27T09:54:10;23.73;;;13.30;;
50092;SDS011;35974;47.752;10.290;2024-01-27T09:56:46;24.25;;;13.68;;
50092;SDS011;35974;47.752;10.290;2024-01-27T09:59:15;21.95;;;13.38;;
50092;SDS011;35974;47.752;10.290;2024-01-27T10:01:44;26.85;;;14.07;;
50092;SDS011;35974;47.752;10.290;2024-01-27T10:04:25;29.02;;;15.63;;
50092;SDS011;35974;47.752;10.290;2024-01-27T10:09:29;30.48;;;16.85;;
50092;SDS011;35974;47.752;10.290;2024-01-27T10:11:55;32.85;;;17.90;;
50092;SDS011;35974;47.752;10.290;2024-01-27T10:14:25;33.65;;;17.88;;
50092;SDS011;35974;47.752;10.290;2024-01-27T10:16:56;35.17;;;18.25;;
50092;SDS011;35974;47.752;10.290;2024-01-27T10:19:24;33.95;;;18.55;;
50092;SDS011;35974;47.752;10.290;2024-01-27T10:22:02;33.65;;;17.95;;
50092;SDS011;35974;47.752;10.290;2024-01-27T10:24:29;31.60;;;17.33;;
50092;SDS011;35974;47.752;10.290;2024-01-27T10:27:02;25.88;;;15.40;;
50092;SDS011;35974;47.752;10.290;2024-01-27T10:29:30;29.00;;;16.42;;
50092;SDS011;35974;47.752;10.290;2024-01-27T10:32:07;27.23;;;16.02;;
50092;SDS011;35974;47.752;10.290;2024-01-27T10:34:37;25.83;;;16.00;;
50092;SDS011;35974;47.752;10.290;2024-01-27T10:37:07;29.73;;;15.07;;
50092;SDS011;35974;47.752;10.290;2024-01-27T10:39:33;25.10;;;14.02;;
50092;SDS011;35974;47.752;10.290;2024-01-27T10:42:01;23.13;;;13.65;;
50092;SDS011;35974;47.752;10.290;2024-01-27T11:11:24;14.68;;;7.82;;
50092;SDS011;35974;47.752;10.290;2024-01-27T11:13:51;15.63;;;8.27;;
50092;SDS011;35974;47.752;10.290;2024-01-27T11:16:18;16.10;;;7.80;;
50092;SDS011;35974;47.752;10.290;2024-01-27T11:18:47;16.25;;;8.32;;
50092;SDS011;35974;47.752;10.290;2024-01-27T11:26:21;11.85;;;7.22;;
50092;SDS011;35974;47.752;10.290;2024-01-27T11:28:49;11.32;;;7.68;;
50092;SDS011;35974;47.752;10.290;2024-01-27T11:31:20;12.90;;;7.70;;
50092;SDS011;35974;47.752;10.290;2024-01-27T11:33:59;13.40;;;7.93;;
50092;SDS011;35974;47.752;10.290;2024-01-27T11:36:35;12.73;;;7.55;;
50092;SDS011;35974;47.752;10.290;2024-01-27T11:39:04;12.90;;;7.53;;
50092;SDS011;35974;47.752;10.290;2024-01-27T11:41:36;10.13;;;7.00;;
50092;SDS011;35974;47.752;10.290;2024-01-27T11:44:07;12.07;;;6.35;;
50092;SDS011;35974;47.752;10.290;2024-01-27T11:46:53;11.40;;;6.53;;
50092;SDS011;35974;47.752;10.290;2024-01-27T11:49:26;9.52;;;5.80;;
50092;SDS011;35974;47.752;10.290;2024-01-27T11:51:59;13.13;;;8.00;;
50092;SDS011;35974;47.752;10.290;2024-01-27T11:54:30;10.57;;;7.28;;
50092;SDS011;35974;47.752;10.290;2024-01-27T11:57:03;14.10;;;6.95;;
50092;SDS011;35974;47.752;10.290;2024-01-27T11:59:37;11.13;;;7.82;;
50092;SDS011;35974;47.752;10.290;2024-01-27T12:02:06;13.30;;;7.60;;
50092;SDS011;35974;47.752;10.290;2024-01-27T12:04:33;16.55;;;8.52;;
50092;SDS011;35974;47.752;10.290;2024-01-27T12:07:03;15.85;;;8.43;;
50092;SDS011;35974;47.752;10.290;2024-01-27T12:09:35;12.88;;;7.22;;
50092;SDS011;35974;47.752;10.290;2024-01-27T12:12:03;11.63;;;7.30;;
50092;SDS011;35974;47.752;10.290;2024-01-27T12:17:15;12.50;;;6.97;;
50092;SDS011;35974;47.752;10.290;2024-01-27T12:19:49;14.77;;;8.02;;
50092;SDS011;35974;47.752;10.290;2024-01-27T12:22:30;14.27;;;7.13;;
50092;SDS011;35974;47.752;10.290;2024-01-27T12:25:08;12.80;;;7.35;;
50092;SDS011;35974;47.752;10.290;2024-01-27T12:27:39;10.60;;;6.72;;
50092;SDS011;35974;47.752;10.290;2024-01-27T12:30:07;14.07;;;6.47;;
50092;SDS011;35974;47.752;10.290;2024-01-27T12:32:34;12.70;;;6.43;;
50092;SDS011;35974;47.752;10.290;2024-01-27T12:35:06;10.50;;;6.63;;
50092;SDS011;35974;47.752;10.290;2024-01-27T12:37:37;15.13;;;7.28;;
50092;SDS011;35974;47.752;10.290;2024-01-27T12:40:17;12.40;;;6.38;;
50092;SDS011;35974;47.752;10.290;2024-01-27T12:42:50;9.13;;;5.63;;
50092;SDS011;35974;47.752;10.290;2024-01-27T12:45:17;10.95;;;6.38;;
50092;SDS011;35974;47.752;10.290;2024-01-27T12:47:46;12.48;;;5.85;;
50092;SDS011;35974;47.752;10.290;2024-01-27T12:50:15;11.75;;;6.25;;
50092;SDS011;35974;47.752;10.290;2024-01-27T12:52:43;10.18;;;6.50;;
50092;SDS011;35974;47.752;10.290;2024-01-27T12:57:41;12.10;;;5.93;;
50092;SDS011;35974;47.752;10.290;2024-01-27T13:00:08;8.38;;;6.07;;
50092;SDS011;35974;47.752;10.290;2024-01-27T13:02:37;8.40;;;5.20;;
50092;SDS011;35974;47.752;10.290;2024-01-27T13:05:05;6.75;;;4.20;;
50092;SDS011;35974;47.752;10.290;2024-01-27T13:07:38;8.68;;;4.47;;
50092;SDS011;35974;47.752;10.290;2024-01-27T13:10:06;9.18;;;3.97;;
50092;SDS011;35974;47.752;10.290;2024-01-27T13:12:35;8.00;;;3.97;;
50092;SDS011;35974;47.752;10.290;2024-01-27T13:15:02;6.13;;;3.95;;
50092;SDS011;35974;47.752;10.290;2024-01-27T13:17:28;9.38;;;3.83;;
50092;SDS011;35974;47.752;10.290;2024-01-27T13:19:57;6.85;;;3.78;;
50092;SDS011;35974;47.752;10.290;2024-01-27T13:22:23;3.63;;;2.75;;
50092;SDS011;35974;47.752;10.290;2024-01-27T13:25:00;7.18;;;3.40;;
50092;SDS011;35974;47.752;10.290;2024-01-27T13:27:34;4.32;;;2.80;;
50092;SDS011;35974;47.752;10.290;2024-01-27T13:30:01;5.45;;;3.15;;
50092;SDS011;35974;47.752;10.290;2024-01-27T13:32:29;7.65;;;2.95;;
50092;SDS011;35974;47.752;10.290;2024-01-27T13:34:56;4.25;;;2.88;;
50092;SDS011;35974;47.752;10.290;2024-01-27T13:37:23;6.97;;;3.35;;
50092;SDS011;35974;47.752;10.290;2024-01-27T13:39:49;5.65;;;2.83;;
50092;SDS011;35974;47.752;10.290;2024-01-27T13:42:16;5.32;;;2.75;;
50092;SDS011;35974;47.752;10.290;2024-01-27T13:44:44;5.72;;;3.20;;
50092;SDS011;35974;47.752;10.290;2024-01-27T13:47:12;7.55;;;2.95;;
50092;SDS011;35974;47.752;10.290;2024-01-27T13:49:41;8.50;;;3.20;;
50092;SDS011;35974;47.752;10.290;2024-01-27T13:52:09;7.15;;;3.45;;
50092;SDS011;35974;47.752;10.290;2024-01-27T13:54:36;6.32;;;3.40;;
50092;SDS011;35974;47.752;10.290;2024-01-27T13:57:02;8.35;;;4.35;;
50092;SDS011;35974;47.752;10.290;2024-01-27T13:59:29;6.28;;;3.47;;
50092;SDS011;35974;47.752;10.290;2024-01-27T14:01:59;6.78;;;3.35;;
50092;SDS011;35974;47.752;10.290;2024-01-27T14:04:25;10.85;;;5.15;;
50092;SDS011;35974;47.752;10.290;2024-01-27T14:06:58;5.70;;;3.30;;
50092;SDS011;35974;47.752;10.290;2024-01-27T14:09:32;6.72;;;3.20;;
50092;SDS011;35974;47.752;10.290;2024-01-27T14:12:00;4.85;;;3.00;;
50092;SDS011;35974;47.752;10.290;2024-01-27T14:14:28;5.65;;;2.90;;
50092;SDS011;35974;47.752;10.290;2024-01-27T14:16:55;5.78;;;3.35;;
50092;SDS011;35974;47.752;10.290;2024-01-27T14:19:23;5.20;;;3.33;;
50092;SDS011;35974;47.752;10.290;2024-01-27T14:21:50;7.95;;;3.58;;
50092;SDS011;35974;47.752;10.290;2024-01-27T14:24:18;6.85;;;4.00;;
50092;SDS011;35974;47.752;10.290;2024-01-27T14:26:44;6.50;;;3.65;;
50092;SDS011;35974;47.752;10.290;2024-01-27T14:29:11;5.70;;;3.40;;
50092;SDS011;35974;47.752;10.290;2024-01-27T14:31:38;5.57;;;3.60;;
50092;SDS011;35974;47.752;10.290;2024-01-27T14:34:06;7.85;;;3.70;;
50092;SDS011;35974;47.752;10.290;2024-01-27T14:36:34;7.15;;;3.50;;
50092;SDS011;35974;47.752;10.290;2024-01-27T14:39:02;6.18;;;3.47;;
50092;SDS011;35974;47.752;10.290;2024-01-27T14:41:30;5.68;;;3.60;;
50092;SDS011;35974;47.752;10.290;2024-01-27T14:44:04;6.78;;;3.60;;
50092;SDS011;35974;47.752;10.290;2024-01-27T14:46:34;7.68;;;3.15;;
50092;SDS011;35974;47.752;10.290;2024-01-27T14:49:12;6.30;;;3.22;;
50092;SDS011;35974;47.752;10.290;2024-01-27T14:56:41;5.43;;;3.33;;
50092;SDS011;35974;47.752;10.290;2024-01-27T14:59:08;6.97;;;4.00;;
50092;SDS011;35974;47.752;10.290;2024-01-27T15:14:42;7.88;;;3.83;;
50092;SDS011;35974;47.752;10.290;2024-01-27T15:19:59;14.15;;;6.28;;
50092;SDS011;35974;47.752;10.290;2024-01-27T15:22:41;10.23;;;5.47;;
50092;SDS011;35974;47.752;10.290;2024-01-27T15:27:51;7.03;;;3.55;;
50092;SDS011;35974;47.752;10.290;2024-01-27T15:33:08;11.43;;;5.93;;
50092;SDS011;35974;47.752;10.290;2024-01-27T15:35:35;10.13;;;5.38;;
50092;SDS011;35974;47.752;10.290;2024-01-27T15:38:14;9.45;;;5.32;;
50092;SDS011;35974;47.752;10.290;2024-01-27T15:40:41;6.32;;;4.03;;
50092;SDS011;35974;47.752;10.290;2024-01-27T15:43:07;11.30;;;5.38;;